createdAt,value
2023-02-22T00:00:43.090Z,97614.75
2023-02-22T00:03:12.475Z,97610.78
2023-02-22T00:05:45.124Z,97607.72
2023-02-22T00:08:13.035Z,97611.00
2023-02-22T00:10:41.293Z,97605.81
2023-02-22T00:13:10.095Z,97603.16
2023-02-22T00:15:38.053Z,97608.88
2023-02-22T00:18:07.122Z,97604.00
2023-02-22T00:20:35.081Z,97608.97
2023-02-22T00:23:07.161Z,97607.06
2023-02-22T00:25:35.474Z,97611.19
2023-02-22T00:28:05.010Z,97613.75
2023-02-22T00:30:34.353Z,97613.66
2023-02-22T00:33:02.332Z,97615.56
2023-02-22T00:35:31.027Z,97614.50
2023-02-22T00:38:00.018Z,97613.34
2023-02-22T00:40:31.391Z,97606.13
2023-02-22T00:42:59.350Z,97616.53
2023-02-22T00:45:28.164Z,97606.72
2023-02-22T00:47:56.437Z,97602.34
2023-02-22T00:50:24.811Z,97595.78
2023-02-22T00:52:52.884Z,97601.84
2023-02-22T00:55:22.995Z,97591.41
2023-02-22T00:57:52.361Z,97587.69
2023-02-22T01:00:22.702Z,97589.69
2023-02-22T01:02:50.839Z,97586.19
2023-02-22T01:05:21.149Z,97588.19
2023-02-22T01:07:49.733Z,97588.63
2023-02-22T01:10:19.346Z,97579.53
2023-02-22T01:12:47.326Z,97580.28
2023-02-22T01:15:16.812Z,97571.25
2023-02-22T01:17:44.745Z,97572.94
2023-02-22T01:20:13.701Z,97576.47
2023-02-22T01:22:42.272Z,97570.50
2023-02-22T01:25:10.367Z,97580.19
2023-02-22T01:27:39.594Z,97568.59
2023-02-22T01:30:09.565Z,97570.19
2023-02-22T01:32:39.283Z,97575.41
2023-02-22T01:35:09.249Z,97572.31
2023-02-22T01:37:37.536Z,97568.69
2023-02-22T01:40:07.132Z,97567.94
2023-02-22T01:42:35.133Z,97564.56
2023-02-22T01:45:55.226Z,97561.16
2023-02-22T01:48:27.446Z,97549.94
2023-02-22T01:50:57.762Z,97550.09
2023-02-22T01:53:27.891Z,97553.16
2023-02-22T01:55:55.886Z,97556.47
2023-02-22T01:58:23.815Z,97548.56
2023-02-22T02:00:51.979Z,97547.63
2023-02-22T02:03:23.583Z,97551.56
2023-02-22T02:05:53.263Z,97542.91
2023-02-22T02:08:26.228Z,97543.56
2023-02-22T02:10:54.774Z,97541.66
2023-02-22T02:13:23.035Z,97538.78
2023-02-22T02:15:52.947Z,97535.47
2023-02-22T02:18:21.051Z,97539.09
2023-02-22T02:21:00.899Z,97537.72
2023-02-22T02:23:46.299Z,97528.88
2023-02-22T02:26:45.438Z,97534.22
2023-02-22T02:29:43.216Z,97534.94
2023-02-22T02:32:27.861Z,97525.38
2023-02-22T02:34:58.859Z,97526.22
2023-02-22T02:37:33.499Z,97525.47
2023-02-22T02:40:06.256Z,97519.59
2023-02-22T02:42:36.246Z,97511.63
2023-02-22T02:45:08.767Z,97506.66
2023-02-22T02:47:38.816Z,97505.91
2023-02-22T02:50:08.386Z,97500.47
2023-02-22T02:52:36.653Z,97497.31
2023-02-22T02:55:05.003Z,97496.44
2023-02-22T02:57:32.994Z,97490.47
2023-02-22T03:00:01.248Z,97486.09
2023-02-22T03:02:38.321Z,97483.91
2023-02-22T03:05:12.880Z,97477.06
2023-02-22T03:07:46.126Z,97473.66
2023-02-22T03:10:22.530Z,97467.63
2023-02-22T03:12:53.086Z,97463.78
2023-02-22T03:15:24.811Z,97470.69
2023-02-22T03:17:56.204Z,97458.97
2023-02-22T03:20:32.046Z,97464.50
2023-02-22T03:23:02.614Z,97459.19
2023-02-22T03:25:34.829Z,97460.34
2023-02-22T03:28:05.174Z,97456.53
2023-02-22T03:30:35.903Z,97457.69
2023-02-22T03:33:09.055Z,97456.22
2023-02-22T03:35:38.307Z,97451.72
2023-02-22T03:38:08.130Z,97450.03
2023-02-22T03:40:37.626Z,97453.13
2023-02-22T03:43:06.707Z,97454.06
2023-02-22T03:45:34.991Z,97453.88
2023-02-22T03:48:06.320Z,97455.56
2023-02-22T03:50:35.607Z,97458.03
2023-02-22T03:53:03.605Z,97441.81
2023-02-22T03:55:32.270Z,97452.69
2023-02-22T03:58:01.030Z,97452.25
2023-02-22T04:00:30.690Z,97448.94
2023-02-22T04:02:58.718Z,97444.72
2023-02-22T04:05:28.355Z,97443.31
2023-02-22T04:07:56.794Z,97448.34
2023-02-22T04:10:24.758Z,97447.06
2023-02-22T04:12:52.917Z,97441.31
2023-02-22T04:15:22.559Z,97439.06
2023-02-22T04:17:52.231Z,97440.25
2023-02-22T04:20:25.565Z,97446.00
2023-02-22T04:22:55.051Z,97440.38
2023-02-22T04:25:23.315Z,97437.91
2023-02-22T04:27:51.224Z,97437.19
2023-02-22T04:30:22.380Z,97435.50
2023-02-22T04:32:50.334Z,97433.16
2023-02-22T04:35:18.835Z,97423.25
2023-02-22T04:37:46.908Z,97427.72
2023-02-22T04:40:17.329Z,97426.66
2023-02-22T04:42:45.291Z,97422.28
2023-02-22T04:45:13.352Z,97423.91
2023-02-22T04:47:41.299Z,97418.88
2023-02-22T04:50:09.995Z,97419.00
2023-02-22T04:52:37.992Z,97410.81
2023-02-22T04:55:06.457Z,97407.69
2023-02-22T04:57:35.832Z,97403.88
2023-02-22T05:00:04.658Z,97405.97
2023-02-22T05:02:32.736Z,97399.66
2023-02-22T05:05:00.723Z,97401.75
2023-02-22T05:07:28.723Z,97399.19
2023-02-22T05:09:56.682Z,97399.31
2023-02-22T05:12:24.614Z,97395.22
2023-02-22T05:14:54.081Z,97397.72
2023-02-22T05:17:21.975Z,97392.84
2023-02-22T05:19:49.904Z,97396.44
2023-02-22T05:22:18.152Z,97392.56
2023-02-22T05:24:46.235Z,97395.97
2023-02-22T05:27:14.407Z,97391.63
2023-02-22T05:29:42.347Z,97392.16
2023-02-22T05:32:12.328Z,97399.00
2023-02-22T05:34:41.427Z,97397.59
2023-02-22T05:37:10.594Z,97396.63
2023-02-22T05:39:38.512Z,97384.38
2023-02-22T05:42:06.509Z,97385.97
2023-02-22T05:44:35.098Z,97385.22
2023-02-22T05:47:03.318Z,97381.59
2023-02-22T05:49:32.635Z,97378.09
2023-02-22T05:52:00.622Z,97377.13
2023-02-22T05:54:28.509Z,97377.75
2023-02-22T05:56:56.419Z,97371.91
2023-02-22T05:59:24.337Z,97379.56
2023-02-22T06:01:52.207Z,97382.66
2023-02-22T06:04:20.457Z,97381.78
2023-02-22T06:06:49.750Z,97380.09
2023-02-22T06:09:17.656Z,97373.34
2023-02-22T06:11:45.554Z,97375.72
2023-02-22T06:14:13.766Z,97377.03
2023-02-22T06:16:41.674Z,97378.69
2023-02-22T06:19:13.318Z,97376.19
2023-02-22T06:21:42.061Z,97382.84
2023-02-22T06:24:12.158Z,97386.25
2023-02-22T06:26:40.310Z,97382.41
2023-02-22T06:29:08.840Z,97379.81
2023-02-22T06:31:37.710Z,97382.47
2023-02-22T06:34:05.702Z,97375.34
2023-02-22T06:36:33.730Z,97380.19
2023-02-22T06:39:01.793Z,97386.19
2023-02-22T06:41:31.087Z,97383.13
2023-02-22T06:43:59.027Z,97389.09
2023-02-22T06:46:26.973Z,97387.06
2023-02-22T06:48:55.292Z,97382.19
2023-02-22T06:51:23.830Z,97390.06
2023-02-22T06:53:52.096Z,97386.44
2023-02-22T06:56:20.645Z,97382.28
2023-02-22T06:58:50.713Z,97381.13
2023-02-22T07:01:19.178Z,97384.94
2023-02-22T07:03:47.744Z,97370.47
2023-02-22T07:06:15.668Z,97385.34
2023-02-22T07:08:43.607Z,97382.81
2023-02-22T07:11:12.428Z,97382.69
2023-02-22T07:13:40.765Z,97379.97
2023-02-22T07:16:10.119Z,97380.81
2023-02-22T07:18:38.677Z,97376.84
2023-02-22T07:21:07.580Z,97376.63
2023-02-22T07:23:35.641Z,97375.50
2023-02-22T07:26:05.268Z,97370.66
2023-02-22T07:28:33.162Z,97372.81
2023-02-22T07:31:01.522Z,97370.03
2023-02-22T07:33:30.945Z,97365.72
2023-02-22T07:35:58.902Z,97362.19
2023-02-22T07:38:26.832Z,97355.69
2023-02-22T07:40:55.308Z,97349.16
2023-02-22T07:43:23.765Z,97351.38
2023-02-22T07:45:53.236Z,97349.22
2023-02-22T07:48:22.170Z,97351.38
2023-02-22T07:50:51.406Z,97358.16
2023-02-22T07:53:26.177Z,97344.13
2023-02-22T07:55:56.174Z,97342.78
2023-02-22T07:58:25.255Z,97342.06
2023-02-22T08:00:53.344Z,97332.88
2023-02-22T08:03:22.067Z,97334.81
2023-02-22T08:05:52.391Z,97330.34
2023-02-22T08:08:20.419Z,97324.28
2023-02-22T08:10:48.576Z,97326.81
2023-02-22T08:13:16.838Z,97323.69
2023-02-22T08:15:45.158Z,97316.53
2023-02-22T08:18:27.547Z,97313.97
2023-02-22T08:21:22.658Z,97303.25
2023-02-22T08:23:54.238Z,97297.56
2023-02-22T08:26:23.742Z,97294.06
2023-02-22T08:28:51.952Z,97285.31
2023-02-22T08:31:20.188Z,97285.41
2023-02-22T08:33:49.999Z,97282.44
2023-02-22T08:36:19.730Z,97276.97
2023-02-22T08:38:54.334Z,97279.50
2023-02-22T08:41:22.370Z,97271.78
2023-02-22T08:43:50.560Z,97263.13
2023-02-22T08:46:18.655Z,97272.69
2023-02-22T08:48:51.429Z,97265.78
2023-02-22T08:51:27.832Z,97262.22
2023-02-22T08:54:01.858Z,97255.09
2023-02-22T08:56:30.261Z,97254.34
2023-02-22T08:58:58.563Z,97255.50
2023-02-22T09:01:32.838Z,97259.47
2023-02-22T09:04:02.501Z,97249.25
2023-02-22T09:06:31.905Z,97245.94
2023-02-22T09:08:59.876Z,97250.75
2023-02-22T09:11:28.147Z,97243.03
2023-02-22T09:13:56.095Z,97243.09
2023-02-22T09:16:26.718Z,97242.53
2023-02-22T09:18:55.051Z,97231.50
2023-02-22T09:21:23.007Z,97234.69
2023-02-22T09:23:54.724Z,97233.75
2023-02-22T09:26:23.851Z,97228.38
2023-02-22T09:28:51.798Z,97225.75
2023-02-22T09:31:20.287Z,97213.91
2023-02-22T09:33:48.599Z,97214.16
2023-02-22T09:36:16.679Z,97212.81
2023-02-22T09:38:44.858Z,97205.94
2023-02-22T09:41:16.851Z,97201.97
2023-02-22T09:43:47.034Z,97195.78
2023-02-22T09:46:20.673Z,97189.56
2023-02-22T09:49:17.575Z,97187.22
2023-02-22T09:51:49.405Z,97178.72
2023-02-22T09:54:20.995Z,97181.69
2023-02-22T09:56:50.416Z,97179.31
2023-02-22T09:59:22.894Z,97178.00
2023-02-22T10:01:52.249Z,97180.16
2023-02-22T10:04:22.174Z,97172.50
2023-02-22T10:06:58.993Z,97173.94
2023-02-22T10:09:29.269Z,97170.56
2023-02-22T10:11:59.755Z,97169.81
2023-02-22T10:14:48.100Z,97160.81
2023-02-22T10:17:22.651Z,97165.84
2023-02-22T10:19:56.673Z,97163.72
2023-02-22T10:22:40.407Z,97165.53
2023-02-22T10:25:12.971Z,97149.91
2023-02-22T10:27:43.982Z,97159.94
2023-02-22T10:30:24.490Z,97157.50
2023-02-22T10:32:56.060Z,97157.22
2023-02-22T10:35:24.706Z,97158.47
2023-02-22T10:37:54.788Z,97156.84
2023-02-22T10:40:32.033Z,97153.06
2023-02-22T10:43:04.458Z,97148.44
2023-02-22T10:45:33.257Z,97153.31
2023-02-22T10:48:02.536Z,97146.16
2023-02-22T10:50:31.570Z,97147.16
2023-02-22T10:52:59.556Z,97139.38
2023-02-22T10:55:27.555Z,97140.06
2023-02-22T10:58:01.965Z,97140.66
2023-02-22T11:00:32.491Z,97141.09
2023-02-22T11:03:01.419Z,97134.28
2023-02-22T11:05:32.006Z,97129.47
2023-02-22T11:08:17.279Z,97126.44
2023-02-22T11:10:45.433Z,97124.38
2023-02-22T11:13:20.520Z,97113.66
2023-02-22T11:15:50.203Z,97119.19
2023-02-22T11:18:24.313Z,97116.75
2023-02-22T11:20:59.887Z,97109.75
2023-02-22T11:23:27.963Z,97098.84
2023-02-22T11:26:02.917Z,97101.06
2023-02-22T11:28:32.923Z,97102.91
2023-02-22T11:31:12.128Z,97091.53
2023-02-22T11:33:40.254Z,97074.28
2023-02-22T11:36:10.397Z,97069.34
2023-02-22T11:38:38.699Z,97054.03
2023-02-22T11:41:11.589Z,97051.56
2023-02-22T11:43:39.645Z,97050.38
2023-02-22T11:46:13.363Z,97039.84
2023-02-22T11:48:45.917Z,97040.41
2023-02-22T11:51:26.061Z,97044.03
2023-02-22T11:54:19.516Z,97029.16
2023-02-22T11:56:48.310Z,97032.34
2023-02-22T11:59:26.353Z,97026.47
2023-02-22T12:01:56.967Z,97016.03
2023-02-22T12:04:52.474Z,97022.44
2023-02-22T12:07:43.371Z,97013.59
2023-02-22T12:10:19.863Z,97019.84
2023-02-22T12:12:57.077Z,97020.25
2023-02-22T12:15:28.739Z,97018.25
2023-02-22T12:18:02.199Z,97018.97
2023-02-22T12:20:37.682Z,97015.38
2023-02-22T12:23:19.129Z,97006.28
2023-02-22T12:25:58.551Z,97010.00
2023-02-22T12:28:30.732Z,96998.09
2023-02-22T12:31:23.119Z,96993.56
2023-02-22T12:34:01.095Z,96996.34
2023-02-22T12:36:33.905Z,96997.47
2023-02-22T12:39:07.699Z,96989.25
2023-02-22T12:41:46.114Z,96983.69
2023-02-22T12:44:23.120Z,96990.47
2023-02-22T12:46:53.345Z,96982.13
2023-02-22T12:49:27.536Z,96981.16
2023-02-22T12:51:57.250Z,96982.44
2023-02-22T12:54:34.562Z,96977.28
2023-02-22T12:57:09.981Z,96980.75
2023-02-22T12:59:40.022Z,96979.31
2023-02-22T13:02:13.719Z,96979.47
2023-02-22T13:04:43.082Z,96980.31
2023-02-22T13:07:24.452Z,96973.44
2023-02-22T13:10:05.032Z,96974.31
2023-02-22T13:12:37.533Z,96975.31
2023-02-22T13:15:10.927Z,96978.31
2023-02-22T13:17:42.029Z,96975.09
2023-02-22T13:20:15.133Z,96971.41
2023-02-22T13:22:49.588Z,96966.53
2023-02-22T13:25:19.743Z,96969.22
2023-02-22T13:27:50.325Z,96970.25
2023-02-22T13:30:24.764Z,96963.84
2023-02-22T13:33:09.633Z,96963.38
2023-02-22T13:35:48.686Z,96966.22
2023-02-22T13:39:01.968Z,96969.41
2023-02-22T13:41:57.822Z,96965.72
2023-02-22T13:44:45.080Z,96966.75
2023-02-22T13:47:36.380Z,96957.66
2023-02-22T13:50:29.282Z,96968.06
2023-02-22T13:52:58.702Z,96969.94
2023-02-22T13:55:29.871Z,96961.69
2023-02-22T13:58:05.382Z,96962.00
2023-02-22T14:00:50.190Z,96975.34
2023-02-22T14:03:40.990Z,96972.16
2023-02-22T14:06:10.800Z,96977.19
2023-02-22T14:08:44.081Z,96977.00
2023-02-22T14:11:57.272Z,96979.19
2023-02-22T14:14:25.779Z,96983.41
2023-02-22T14:17:22.914Z,96977.00
2023-02-22T14:20:05.727Z,96984.22
2023-02-22T14:22:34.208Z,96980.19
2023-02-22T14:25:03.812Z,96975.63
2023-02-22T14:27:40.647Z,96979.16
2023-02-22T14:30:25.545Z,96970.25
2023-02-22T14:32:53.553Z,96977.28
2023-02-22T14:35:30.025Z,96982.31
2023-02-22T14:38:04.314Z,96976.78
2023-02-22T14:40:34.453Z,96973.09
2023-02-22T14:43:03.447Z,96987.41
2023-02-22T14:45:33.411Z,96982.00
2023-02-22T14:48:04.223Z,96972.66
2023-02-22T14:50:38.626Z,96979.88
2023-02-22T14:53:08.480Z,96977.88
2023-02-22T14:55:41.243Z,96980.72
2023-02-22T14:58:14.883Z,96979.94
2023-02-22T15:01:44.482Z,96983.25
2023-02-22T15:04:20.503Z,96984.25
2023-02-22T15:06:48.665Z,96986.44
2023-02-22T15:09:25.758Z,96983.09
2023-02-22T15:12:12.929Z,96988.19
2023-02-22T15:14:41.847Z,96990.22
2023-02-22T15:17:11.043Z,96979.16
2023-02-22T15:19:40.361Z,96980.22
2023-02-22T15:22:09.230Z,96981.22
2023-02-22T15:24:38.284Z,96984.34
2023-02-22T15:27:08.413Z,96986.03
2023-02-22T15:29:37.671Z,96982.50
2023-02-22T15:32:21.072Z,96989.13
2023-02-22T15:34:49.203Z,96982.16
2023-02-22T15:37:25.155Z,96990.97
2023-02-22T15:39:59.433Z,96990.38
2023-02-22T15:42:30.493Z,96990.78
2023-02-22T15:44:58.847Z,96994.22
2023-02-22T15:47:28.189Z,96994.22
2023-02-22T15:50:18.581Z,96989.94
2023-02-22T15:52:53.172Z,96993.75
2023-02-22T15:55:21.445Z,96995.72
2023-02-22T15:57:50.952Z,96994.88
2023-02-22T16:00:21.456Z,96989.22
2023-02-22T16:02:51.079Z,96994.09
2023-02-22T16:05:19.376Z,96996.09
2023-02-22T16:07:49.878Z,97006.84
2023-02-22T16:10:23.544Z,97004.16
2023-02-22T16:13:03.877Z,97005.66
2023-02-22T16:15:33.405Z,97009.50
2023-02-22T16:18:24.560Z,97007.44
2023-02-22T16:20:59.314Z,97005.47
2023-02-22T16:23:27.672Z,97002.69
2023-02-22T16:26:29.589Z,97012.22
2023-02-22T16:29:00.163Z,97013.91
2023-02-22T16:31:29.473Z,97018.50
2023-02-22T16:33:57.843Z,97015.13
2023-02-22T16:36:38.381Z,97015.56
2023-02-22T16:39:07.214Z,97008.09
2023-02-22T16:41:35.131Z,97016.50
2023-02-22T16:44:11.122Z,97021.22
2023-02-22T16:46:45.003Z,97019.81
2023-02-22T16:49:13.307Z,97021.75
2023-02-22T16:51:42.667Z,97031.63
2023-02-22T16:54:12.413Z,97028.34
2023-02-22T16:56:40.457Z,97033.19
2023-02-22T16:59:10.485Z,97030.13
2023-02-22T17:01:38.515Z,97038.00
2023-02-22T17:04:14.467Z,97030.78
2023-02-22T17:06:42.435Z,97048.03
2023-02-22T17:09:10.647Z,97046.03
2023-02-22T17:11:38.613Z,97047.63
2023-02-22T17:14:06.596Z,97047.88
2023-02-22T17:16:36.177Z,97058.00
2023-02-22T17:19:05.156Z,97064.78
2023-02-22T17:21:34.106Z,97061.28
2023-02-22T17:24:02.052Z,97072.22
2023-02-22T17:26:30.017Z,97066.69
2023-02-22T17:28:58.750Z,97063.75
2023-02-22T17:31:31.859Z,97062.63
2023-02-22T17:34:02.948Z,97066.34
2023-02-22T17:36:30.932Z,97067.56
2023-02-22T17:38:59.592Z,97075.94
2023-02-22T17:41:27.524Z,97066.63
2023-02-22T17:43:58.012Z,97074.25
2023-02-22T17:46:26.506Z,97080.91
2023-02-22T17:48:55.158Z,97083.91
2023-02-22T17:51:25.695Z,97079.00
2023-02-22T17:53:53.963Z,97081.81
2023-02-22T17:56:21.961Z,97086.88
2023-02-22T17:58:53.134Z,97086.50
2023-02-22T18:01:24.589Z,97098.09
2023-02-22T18:03:53.223Z,97091.88
2023-02-22T18:06:24.611Z,97090.31
2023-02-22T18:08:56.587Z,97087.50
2023-02-22T18:11:26.457Z,97088.63
2023-02-22T18:13:55.125Z,97091.03
2023-02-22T18:16:27.992Z,97087.06
2023-02-22T18:19:00.118Z,97091.75
2023-02-22T18:21:28.602Z,97090.91
2023-02-22T18:23:58.141Z,97086.81
2023-02-22T18:26:26.633Z,97088.38
2023-02-22T18:28:54.919Z,97088.25
2023-02-22T18:31:23.536Z,97096.69
2023-02-22T18:33:52.388Z,97088.53
2023-02-22T18:36:23.143Z,97095.97
2023-02-22T18:38:52.139Z,97092.19
2023-02-22T18:41:25.305Z,97095.00
2023-02-22T18:43:55.185Z,97090.47
2023-02-22T18:46:24.269Z,97094.72
2023-02-22T18:48:53.750Z,97098.66
2023-02-22T18:51:21.670Z,97098.25
2023-02-22T18:53:54.887Z,97090.78
2023-02-22T18:56:29.579Z,97107.13
2023-02-22T18:58:58.633Z,97108.41
2023-02-22T19:01:26.887Z,97119.81
2023-02-22T19:03:55.557Z,97112.22
2023-02-22T19:06:23.784Z,97110.09
2023-02-22T19:08:52.007Z,97116.44
2023-02-22T19:11:21.947Z,97109.41
2023-02-22T19:13:52.287Z,97111.78
2023-02-22T19:16:21.583Z,97113.47
2023-02-22T19:18:49.934Z,97114.91
2023-02-22T19:21:18.330Z,97113.34
2023-02-22T19:23:47.695Z,97109.97
2023-02-22T19:26:18.841Z,97118.69
2023-02-22T19:28:47.892Z,97117.44
2023-02-22T19:31:18.789Z,97122.22
2023-02-22T19:33:47.565Z,97118.56
2023-02-22T19:36:15.889Z,97124.47
2023-02-22T19:38:44.224Z,97118.44
2023-02-22T19:41:15.253Z,97130.97
2023-02-22T19:43:43.411Z,97124.06
2023-02-22T19:46:12.030Z,97135.34
2023-02-22T19:48:42.071Z,97132.66
2023-02-22T19:51:10.959Z,97129.41
2023-02-22T19:53:40.224Z,97125.75
2023-02-22T19:56:09.626Z,97131.66
2023-02-22T19:58:37.686Z,97131.25
2023-02-22T20:01:13.313Z,97133.66
2023-02-22T20:03:43.040Z,97139.84
2023-02-22T20:06:11.095Z,97135.63
2023-02-22T20:08:42.311Z,97138.69
2023-02-22T20:11:10.648Z,97139.53
2023-02-22T20:13:38.718Z,97144.63
2023-02-22T20:16:07.460Z,97152.78
2023-02-22T20:18:36.719Z,97155.34
2023-02-22T20:21:09.604Z,97155.47
2023-02-22T20:23:40.203Z,97155.34
2023-02-22T20:26:11.102Z,97161.94
2023-02-22T20:28:39.042Z,97165.06
2023-02-22T20:31:11.227Z,97173.50
2023-02-22T20:33:41.688Z,97181.97
2023-02-22T20:36:12.226Z,97188.41
2023-02-22T20:38:40.210Z,97190.53
2023-02-22T20:41:09.099Z,97185.91
2023-02-22T20:43:37.341Z,97192.09
2023-02-22T20:46:06.122Z,97196.00
2023-02-22T20:48:34.169Z,97192.63
2023-02-22T20:51:06.592Z,97199.53
2023-02-22T20:53:36.488Z,97211.38
2023-02-22T20:56:05.346Z,97216.00
2023-02-22T20:58:33.368Z,97222.16
2023-02-22T21:01:05.663Z,97234.41
2023-02-22T21:03:34.028Z,97236.38
2023-02-22T21:06:01.990Z,97238.16
2023-02-22T21:08:31.255Z,97243.44
2023-02-22T21:11:00.883Z,97243.84
2023-02-22T21:13:28.834Z,97245.31
2023-02-22T21:15:56.730Z,97245.34
2023-02-22T21:18:25.148Z,97237.03
2023-02-22T21:20:53.800Z,97246.19
2023-02-22T21:23:21.780Z,97242.94
2023-02-22T21:25:53.121Z,97244.44
2023-02-22T21:28:23.302Z,97241.78
2023-02-22T21:30:52.723Z,97251.47
2023-02-22T21:33:21.155Z,97248.06
2023-02-22T21:35:50.618Z,97244.13
2023-02-22T21:38:21.082Z,97243.00
2023-02-22T21:40:49.188Z,97246.91
2023-02-22T21:43:17.146Z,97250.31
2023-02-22T21:45:46.470Z,97251.03
2023-02-22T21:48:14.667Z,97240.72
2023-02-22T21:50:42.934Z,97247.13
2023-02-22T21:53:12.726Z,97246.97
2023-02-22T21:55:40.994Z,97244.28
2023-02-22T21:58:09.540Z,97248.34
2023-02-22T22:00:42.571Z,97249.38
2023-02-22T22:03:20.372Z,97253.59
2023-02-22T22:05:49.133Z,97261.72
2023-02-22T22:08:20.356Z,97249.94
2023-02-22T22:10:55.281Z,97257.09
2023-02-22T22:13:23.484Z,97265.84
2023-02-22T22:15:51.491Z,97260.81
2023-02-22T22:18:20.830Z,97257.03
2023-02-22T22:20:51.872Z,97252.00
2023-02-22T22:23:19.813Z,97258.81
2023-02-22T22:25:51.150Z,97256.16
2023-02-22T22:28:19.109Z,97258.16
2023-02-22T22:30:47.098Z,97262.97
2023-02-22T22:33:15.141Z,97253.94
2023-02-22T22:35:44.409Z,97261.22
2023-02-22T22:38:13.841Z,97264.47
2023-02-22T22:40:41.749Z,97258.31
2023-02-22T22:43:09.681Z,97263.88
2023-02-22T22:45:38.732Z,97269.13
2023-02-22T22:48:06.953Z,97273.94
2023-02-22T22:50:35.401Z,97277.41
2023-02-22T22:53:05.440Z,97280.16
2023-02-22T22:55:33.714Z,97285.50
2023-02-22T22:58:02.055Z,97289.28
2023-02-22T23:00:36.191Z,97292.13
2023-02-22T23:03:05.756Z,97298.88
2023-02-22T23:05:37.003Z,97295.06
2023-02-22T23:08:10.573Z,97295.13
2023-02-22T23:10:39.690Z,97298.88
2023-02-22T23:13:09.903Z,97298.25
2023-02-22T23:15:38.445Z,97306.78
2023-02-22T23:18:07.536Z,97305.50
2023-02-22T23:20:38.946Z,97302.69
2023-02-22T23:23:14.697Z,97305.81
2023-02-22T23:25:42.762Z,97303.41
2023-02-22T23:28:14.832Z,97299.91
2023-02-22T23:30:42.919Z,97296.56
2023-02-22T23:33:11.172Z,97304.16
2023-02-22T23:35:39.109Z,97301.78
2023-02-22T23:38:11.177Z,97301.31
2023-02-22T23:40:39.523Z,97306.28
2023-02-22T23:43:07.783Z,97299.53
2023-02-22T23:45:38.553Z,97302.16
2023-02-22T23:48:07.132Z,97311.91
2023-02-22T23:50:36.403Z,97307.31
2023-02-22T23:53:06.035Z,97306.59
2023-02-22T23:55:39.149Z,97306.59
2023-02-22T23:58:07.122Z,97311.81
